createdAt,value
2023-04-03T00:00:38.915Z,7.20
2023-04-03T00:01:38.810Z,6.80
2023-04-03T00:02:39.003Z,8.30
2023-04-03T00:03:38.767Z,5.40
2023-04-03T00:04:38.896Z,7.10
2023-04-03T00:05:38.755Z,7.30
2023-04-03T00:06:38.838Z,6.50
2023-04-03T00:07:38.751Z,6.70
2023-04-03T00:08:38.743Z,4.60
2023-04-03T00:09:38.771Z,7.60
2023-04-03T00:10:39.177Z,5.70
2023-04-03T00:11:38.739Z,5.70
2023-04-03T00:12:38.759Z,7.10
2023-04-03T00:13:38.684Z,6.90
2023-04-03T00:14:38.677Z,6.40
2023-04-03T00:15:38.641Z,7.40
2023-04-03T00:16:38.683Z,5.80
2023-04-03T00:17:38.779Z,6.10
2023-04-03T00:18:38.655Z,6.50
2023-04-03T00:19:38.688Z,5.20
2023-04-03T00:20:38.989Z,6.90
2023-04-03T00:21:38.632Z,7.50
2023-04-03T00:22:38.691Z,6.70
2023-04-03T00:23:38.614Z,8.80
2023-04-03T00:24:38.608Z,7.40
2023-04-03T00:25:38.581Z,5.70
2023-04-03T00:26:38.544Z,7.80
2023-04-03T00:27:38.528Z,6.40
2023-04-03T00:28:38.544Z,6.50
2023-04-03T00:29:38.533Z,6.90
2023-04-03T00:30:38.888Z,8.00
2023-04-03T00:31:38.495Z,6.60
2023-04-03T00:32:38.589Z,5.60
2023-04-03T00:33:38.534Z,6.80
2023-04-03T00:34:38.518Z,5.20
2023-04-03T00:35:38.450Z,7.50
2023-04-03T00:36:38.480Z,7.30
2023-04-03T00:37:38.457Z,7.40
2023-04-03T00:38:38.446Z,6.60
2023-04-03T00:39:38.414Z,5.50
2023-04-03T00:40:38.776Z,8.40
2023-04-03T00:41:38.336Z,4.70
2023-04-03T00:42:38.459Z,7.20
2023-04-03T00:43:38.371Z,6.30
2023-04-03T00:44:38.350Z,4.90
2023-04-03T00:45:38.346Z,5.90
2023-04-03T00:46:38.417Z,5.40
2023-04-03T00:47:38.400Z,6.60
2023-04-03T00:48:38.332Z,6.90
2023-04-03T00:49:38.370Z,5.50
2023-04-03T00:50:38.591Z,5.90
2023-04-03T00:51:38.368Z,5.20
2023-04-03T00:52:38.240Z,4.40
2023-04-03T00:53:38.275Z,4.50
2023-04-03T00:54:38.233Z,6.80
2023-04-03T00:55:38.233Z,4.80
2023-04-03T00:56:38.214Z,4.20
2023-04-03T00:57:38.217Z,4.70
2023-04-03T00:58:38.191Z,4.50
2023-04-03T00:59:38.186Z,5.20
2023-04-03T01:00:38.633Z,5.30
2023-04-03T01:01:38.221Z,6.40
2023-04-03T01:02:38.155Z,5.80
2023-04-03T01:03:38.122Z,5.80
2023-04-03T01:04:38.327Z,6.20
2023-04-03T01:05:38.151Z,5.50
2023-04-03T01:06:38.133Z,5.50
2023-04-03T01:07:38.181Z,5.20
2023-04-03T01:08:38.126Z,5.70
2023-04-03T01:09:38.074Z,4.30
2023-04-03T01:10:38.295Z,5.90
2023-04-03T01:11:38.113Z,5.20
2023-04-03T01:12:38.078Z,5.00
2023-04-03T01:13:38.026Z,6.60
2023-04-03T01:14:38.044Z,6.40
2023-04-03T01:15:38.008Z,7.50
2023-04-03T01:16:38.018Z,3.70
2023-04-03T01:17:38.032Z,5.70
2023-04-03T01:18:38.001Z,6.50
2023-04-03T01:19:37.991Z,5.40
2023-04-03T01:20:38.517Z,5.60
2023-04-03T01:21:38.056Z,6.50
2023-04-03T01:22:37.924Z,5.50
2023-04-03T01:23:38.003Z,3.70
2023-04-03T01:24:37.937Z,7.20
2023-04-03T01:25:37.917Z,7.10
2023-04-03T01:26:37.877Z,4.40
2023-04-03T01:27:37.976Z,6.40
2023-04-03T01:28:37.923Z,6.30
2023-04-03T01:29:37.856Z,8.00
2023-04-03T01:30:38.162Z,6.90
2023-04-03T01:31:37.951Z,7.60
2023-04-03T01:32:37.844Z,6.90
2023-04-03T01:33:37.810Z,8.10
2023-04-03T01:34:37.822Z,9.30
2023-04-03T01:35:37.805Z,6.20
2023-04-03T01:36:37.778Z,8.50
2023-04-03T01:37:37.783Z,8.80
2023-04-03T01:38:37.798Z,9.60
2023-04-03T01:39:37.755Z,10.70
2023-04-03T01:40:37.968Z,13.00
2023-04-03T01:41:37.785Z,11.50
2023-04-03T01:42:37.797Z,10.00
2023-04-03T01:43:37.702Z,13.20
2023-04-03T01:44:37.729Z,11.80
2023-04-03T01:45:37.777Z,12.40
2023-04-03T01:46:37.702Z,10.80
2023-04-03T01:47:37.716Z,11.90
2023-04-03T01:48:37.673Z,12.70
2023-04-03T01:49:37.683Z,13.10
2023-04-03T01:50:37.998Z,12.80
2023-04-03T01:51:37.723Z,13.00
2023-04-03T01:52:37.643Z,10.40
2023-04-03T01:53:37.645Z,11.70
2023-04-03T01:54:37.607Z,12.80
2023-04-03T01:55:37.619Z,13.10
2023-04-03T01:56:37.577Z,12.60
2023-04-03T01:57:37.564Z,11.60
2023-04-03T01:58:37.617Z,9.80
2023-04-03T01:59:37.528Z,11.90
2023-04-03T02:00:37.976Z,10.30
2023-04-03T02:01:37.716Z,12.10
2023-04-03T02:02:37.546Z,12.10
2023-04-03T02:03:37.516Z,13.30
2023-04-03T02:04:37.544Z,13.40
2023-04-03T02:05:37.484Z,10.90
2023-04-03T02:06:37.565Z,10.20
2023-04-03T02:07:37.455Z,11.50
2023-04-03T02:08:37.474Z,9.80
2023-04-03T02:09:37.450Z,10.20
2023-04-03T02:10:37.696Z,10.50
2023-04-03T02:11:37.433Z,9.20
2023-04-03T02:12:37.418Z,11.10
2023-04-03T02:13:37.381Z,9.80
2023-04-03T02:14:37.375Z,10.00
2023-04-03T02:15:37.378Z,9.80
2023-04-03T02:16:37.368Z,11.40
2023-04-03T02:17:37.367Z,10.50
2023-04-03T02:18:37.340Z,11.90
2023-04-03T02:19:37.358Z,9.60
2023-04-03T02:20:37.532Z,9.20
2023-04-03T02:21:37.309Z,9.50
2023-04-03T02:22:37.343Z,12.30
2023-04-03T02:23:37.314Z,8.30
2023-04-03T02:24:37.267Z,10.70
2023-04-03T02:25:38.723Z,9.00
2023-04-03T02:26:37.274Z,10.30
2023-04-03T02:27:37.284Z,10.20
2023-04-03T02:28:37.306Z,10.20
2023-04-03T02:29:37.190Z,10.90
2023-04-03T02:30:37.396Z,8.70
2023-04-03T02:31:37.193Z,6.40
2023-04-03T02:32:37.277Z,9.00
2023-04-03T02:33:37.186Z,9.60
2023-04-03T02:34:37.188Z,9.30
2023-04-03T02:35:37.223Z,9.40
2023-04-03T02:36:37.134Z,9.00
2023-04-03T02:37:37.180Z,9.00
2023-04-03T02:38:37.146Z,8.70
2023-04-03T02:39:37.101Z,7.80
2023-04-03T02:40:37.321Z,9.80
2023-04-03T02:41:37.138Z,6.70
2023-04-03T02:42:37.158Z,10.30
2023-04-03T02:43:37.162Z,10.30
2023-04-03T02:44:37.104Z,6.80
2023-04-03T02:45:37.100Z,10.00
2023-04-03T02:46:37.128Z,8.80
2023-04-03T02:47:37.093Z,7.40
2023-04-03T02:48:37.015Z,7.00
2023-04-03T02:49:36.990Z,7.40
2023-04-03T02:51:30.995Z,6.70
2023-04-03T02:52:30.889Z,6.10
2023-04-03T02:53:30.816Z,7.30
2023-04-03T02:54:30.512Z,5.70
2023-04-03T02:55:30.511Z,6.70
2023-04-03T02:56:30.488Z,8.00
2023-04-03T02:57:30.588Z,6.70
2023-04-03T02:58:30.445Z,5.80
2023-04-03T02:59:30.495Z,8.50
2023-04-03T03:00:30.450Z,8.40
2023-04-03T03:01:30.423Z,6.60
2023-04-03T03:02:30.432Z,6.90
2023-04-03T03:03:30.422Z,7.00
2023-04-03T03:04:30.414Z,5.70
2023-04-03T03:05:30.421Z,5.10
2023-04-03T03:06:30.425Z,5.00
2023-04-03T03:07:30.367Z,5.80
2023-04-03T03:08:30.395Z,5.70
2023-04-03T03:09:30.362Z,6.40
2023-04-03T03:10:30.432Z,7.40
2023-04-03T03:11:30.324Z,4.10
2023-04-03T03:12:32.599Z,4.80
2023-04-03T03:13:30.312Z,5.70
2023-04-03T03:14:30.324Z,4.30
2023-04-03T03:15:30.318Z,5.00
2023-04-03T03:16:30.357Z,6.70
2023-04-03T03:17:30.340Z,4.60
2023-04-03T03:18:30.242Z,5.20
2023-04-03T03:19:30.259Z,8.70
2023-04-03T03:20:30.247Z,6.10
2023-04-03T03:21:30.221Z,4.30
2023-04-03T03:22:31.708Z,4.70
2023-04-03T03:23:30.184Z,5.60
2023-04-03T03:24:30.186Z,3.80
2023-04-03T03:25:30.172Z,7.00
2023-04-03T03:26:30.176Z,6.00
2023-04-03T03:27:30.166Z,6.40
2023-04-03T03:28:30.126Z,5.30
2023-04-03T03:29:30.112Z,6.00
2023-04-03T03:30:30.131Z,5.80
2023-04-03T03:31:30.122Z,5.70
2023-04-03T03:32:30.132Z,7.20
2023-04-03T03:33:30.066Z,5.70
2023-04-03T03:34:30.057Z,6.40
2023-04-03T03:35:30.073Z,5.60
2023-04-03T03:36:30.031Z,4.50
2023-04-03T03:37:30.043Z,6.10
2023-04-03T03:38:30.046Z,6.30
2023-04-03T03:39:30.014Z,5.20
2023-04-03T03:40:30.002Z,6.10
2023-04-03T03:41:29.971Z,6.40
2023-04-03T03:42:29.979Z,6.70
2023-04-03T03:43:29.991Z,6.60
2023-04-03T03:44:29.971Z,7.90
2023-04-03T03:45:30.000Z,7.20
2023-04-03T03:46:29.947Z,8.20
2023-04-03T03:47:29.946Z,7.90
2023-04-03T03:48:29.908Z,7.70
2023-04-03T03:49:29.920Z,9.10
2023-04-03T03:50:29.871Z,9.30
2023-04-03T03:51:29.857Z,7.70
2023-04-03T03:52:29.840Z,8.40
2023-04-03T03:53:29.851Z,7.80
2023-04-03T03:54:29.840Z,9.20
2023-04-03T03:55:29.813Z,8.10
2023-04-03T03:56:39.015Z,9.10
2023-04-03T03:57:30.354Z,12.00
2023-04-03T03:58:30.220Z,8.00
2023-04-03T03:59:30.193Z,9.80
2023-04-03T04:00:30.214Z,9.00
2023-04-03T04:01:29.926Z,9.40
2023-04-03T04:02:29.934Z,8.40
2023-04-03T04:03:29.789Z,9.20
2023-04-03T04:04:29.733Z,9.20
2023-04-03T04:05:29.725Z,10.00
2023-04-03T04:06:29.774Z,8.40
2023-04-03T04:07:29.741Z,7.30
2023-04-03T04:08:29.676Z,8.20
2023-04-03T04:09:29.665Z,6.60
2023-04-03T04:10:29.696Z,6.90
2023-04-03T04:11:29.704Z,8.50
2023-04-03T04:12:29.647Z,8.30
2023-04-03T04:13:29.635Z,8.60
2023-04-03T04:14:29.690Z,9.60
2023-04-03T04:15:29.636Z,8.90
2023-04-03T04:16:29.693Z,8.80
2023-04-03T04:17:29.690Z,8.10
2023-04-03T04:18:29.626Z,7.00
2023-04-03T04:19:29.613Z,7.50
2023-04-03T04:20:29.614Z,9.50
2023-04-03T04:21:29.569Z,8.40
2023-04-03T04:22:29.569Z,8.50
2023-04-03T04:23:29.572Z,8.60
2023-04-03T04:24:29.524Z,8.10
2023-04-03T04:25:29.534Z,8.00
2023-04-03T04:26:29.535Z,8.40
2023-04-03T04:27:29.474Z,7.60
2023-04-03T04:28:29.475Z,8.40
2023-04-03T04:29:29.495Z,8.20
2023-04-03T04:30:29.436Z,7.10
2023-04-03T04:31:29.539Z,8.50
2023-04-03T04:32:29.530Z,9.20
2023-04-03T04:33:29.441Z,8.00
2023-04-03T04:34:29.472Z,7.70
2023-04-03T04:35:29.469Z,9.30
2023-04-03T04:36:29.497Z,8.30
2023-04-03T04:37:29.374Z,8.20
2023-04-03T04:38:29.434Z,9.00
2023-04-03T04:39:29.359Z,9.80
2023-04-03T04:40:29.382Z,8.90
2023-04-03T04:41:29.386Z,9.10
2023-04-03T04:42:29.360Z,10.00
2023-04-03T04:43:29.326Z,9.40
2023-04-03T04:44:29.372Z,10.40
2023-04-03T04:45:29.294Z,10.30
2023-04-03T04:46:29.302Z,10.50
2023-04-03T04:47:29.332Z,11.00
2023-04-03T04:48:31.368Z,8.30
2023-04-03T04:49:29.253Z,9.70
2023-04-03T04:50:29.247Z,12.00
2023-04-03T04:51:32.991Z,7.90
2023-04-03T04:52:30.208Z,9.60
2023-04-03T04:53:29.246Z,8.00
2023-04-03T04:54:29.226Z,8.80
2023-04-03T04:55:29.191Z,8.70
2023-04-03T04:56:29.200Z,9.60
2023-04-03T04:57:29.319Z,8.90
2023-04-03T04:58:29.164Z,7.80
2023-04-03T04:59:29.219Z,9.10
2023-04-03T05:00:29.120Z,9.10
2023-04-03T05:01:29.198Z,9.30
2023-04-03T05:02:29.162Z,8.40
2023-04-03T05:03:29.139Z,7.40
2023-04-03T05:04:29.122Z,9.10
2023-04-03T05:05:29.118Z,6.90
2023-04-03T05:06:29.052Z,8.30
2023-04-03T05:07:29.072Z,7.60
2023-04-03T05:08:29.112Z,6.90
2023-04-03T05:09:29.050Z,7.80
2023-04-03T05:10:29.049Z,8.00
2023-04-03T05:11:29.081Z,7.70
2023-04-03T05:12:29.010Z,9.00
2023-04-03T05:13:29.020Z,8.00
2023-04-03T05:14:28.979Z,7.30
2023-04-03T05:15:29.011Z,6.10
2023-04-03T05:16:29.001Z,7.10
2023-04-03T05:17:28.975Z,7.40
2023-04-03T05:18:28.982Z,6.80
2023-04-03T05:19:28.965Z,7.90
2023-04-03T05:20:28.953Z,8.10
2023-04-03T05:21:28.914Z,6.40
2023-04-03T05:22:28.967Z,7.90
2023-04-03T05:23:28.888Z,7.20
2023-04-03T05:24:28.872Z,6.90
2023-04-03T05:25:28.908Z,7.50
2023-04-03T05:26:28.877Z,6.50
2023-04-03T05:27:28.866Z,8.60
2023-04-03T05:28:28.880Z,8.40
2023-04-03T05:29:28.870Z,6.20
2023-04-03T05:30:28.797Z,7.80
2023-04-03T05:31:28.996Z,6.40
2023-04-03T05:32:28.890Z,7.10
2023-04-03T05:33:28.770Z,7.90
2023-04-03T05:34:28.770Z,6.60
2023-04-03T05:35:28.782Z,6.20
2023-04-03T05:36:28.774Z,8.10
2023-04-03T05:37:28.795Z,7.60
2023-04-03T05:38:28.737Z,7.30
2023-04-03T05:39:28.734Z,6.40
2023-04-03T05:40:28.754Z,6.70
2023-04-03T05:41:29.052Z,7.90
2023-04-03T05:42:28.692Z,6.90
2023-04-03T05:43:28.681Z,6.90
2023-04-03T05:44:28.707Z,6.30
2023-04-03T05:45:28.702Z,8.60
2023-04-03T05:46:28.704Z,4.50
2023-04-03T05:47:28.646Z,6.90
2023-04-03T05:48:28.604Z,9.50
2023-04-03T05:49:28.602Z,7.80
2023-04-03T05:50:28.607Z,6.90
2023-04-03T05:51:28.581Z,5.60
2023-04-03T05:52:28.563Z,6.60
2023-04-03T05:53:28.562Z,7.70
2023-04-03T05:54:28.567Z,7.60
2023-04-03T05:55:28.552Z,6.40
2023-04-03T05:56:28.576Z,5.70
2023-04-03T05:57:28.580Z,5.80
2023-04-03T05:58:28.550Z,5.20
2023-04-03T05:59:28.504Z,6.30
2023-04-03T06:00:28.485Z,6.80
2023-04-03T06:01:28.491Z,6.40
2023-04-03T06:02:28.565Z,7.40
2023-04-03T06:03:28.603Z,6.00
2023-04-03T06:04:28.501Z,5.70
2023-04-03T06:05:28.427Z,4.60
2023-04-03T06:06:28.417Z,5.80
2023-04-03T06:07:28.465Z,5.60
2023-04-03T06:08:28.427Z,6.90
2023-04-03T06:09:28.440Z,6.20
2023-04-03T06:10:29.072Z,4.90
2023-04-03T06:11:28.456Z,6.30
2023-04-03T06:12:28.381Z,6.50
2023-04-03T06:13:28.399Z,4.90
2023-04-03T06:14:28.333Z,7.20
2023-04-03T06:15:28.315Z,4.80
2023-04-03T06:16:28.334Z,5.70
2023-04-03T06:17:28.330Z,5.90
2023-04-03T06:18:28.279Z,6.60
2023-04-03T06:19:28.283Z,5.50
2023-04-03T06:20:28.265Z,5.90
2023-04-03T06:21:28.267Z,7.70
2023-04-03T06:22:28.618Z,6.40
2023-04-03T06:23:28.233Z,5.00
2023-04-03T06:24:28.234Z,4.80
2023-04-03T06:25:28.356Z,3.60
2023-04-03T06:26:28.227Z,7.80
2023-04-03T06:27:28.195Z,6.80
2023-04-03T06:28:28.363Z,5.70
2023-04-03T06:29:28.163Z,5.50
2023-04-03T06:30:28.204Z,5.60
2023-04-03T06:31:28.194Z,6.10
2023-04-03T06:32:28.194Z,5.10
2023-04-03T06:33:28.139Z,4.50
2023-04-03T06:34:28.123Z,4.70
2023-04-03T06:35:28.146Z,6.60
2023-04-03T06:36:28.104Z,7.30
2023-04-03T06:37:28.082Z,4.20
2023-04-03T06:38:28.109Z,4.40
2023-04-03T06:39:28.124Z,4.40
2023-04-03T06:40:28.072Z,5.20
2023-04-03T06:41:28.041Z,5.90
2023-04-03T06:42:28.060Z,4.80
2023-04-03T06:43:28.052Z,5.40
2023-04-03T06:44:27.998Z,4.70
2023-04-03T06:45:28.000Z,5.80
2023-04-03T06:46:28.055Z,7.00
2023-04-03T06:47:27.986Z,4.50
2023-04-03T06:48:28.013Z,3.80
2023-04-03T06:49:27.937Z,2.60
2023-04-03T06:50:28.004Z,3.80
2023-04-03T06:51:27.963Z,3.30
2023-04-03T06:52:27.985Z,4.30
2023-04-03T06:53:27.920Z,6.00
2023-04-03T06:54:27.892Z,4.90
2023-04-03T06:55:27.937Z,7.20
2023-04-03T06:56:27.881Z,6.90
2023-04-03T06:57:27.927Z,6.50
2023-04-03T06:58:27.881Z,7.70
2023-04-03T06:59:27.928Z,6.90
2023-04-03T07:00:27.831Z,5.40
2023-04-03T07:01:27.883Z,8.10
2023-04-03T07:02:28.191Z,4.10
2023-04-03T07:03:27.797Z,7.00
2023-04-03T07:04:27.815Z,4.90
2023-04-03T07:05:27.803Z,6.50
2023-04-03T07:06:28.068Z,5.90
2023-04-03T07:07:27.798Z,7.80
2023-04-03T07:08:27.762Z,6.50
2023-04-03T07:09:27.773Z,7.00
2023-04-03T07:10:27.729Z,4.10
2023-04-03T07:11:27.705Z,7.00
2023-04-03T07:12:27.688Z,4.90
2023-04-03T07:13:27.698Z,5.40
2023-04-03T07:14:27.702Z,5.70
2023-04-03T07:15:27.685Z,5.80
2023-04-03T07:16:27.900Z,6.70
2023-04-03T07:17:27.675Z,6.90
2023-04-03T07:18:27.655Z,6.80
2023-04-03T07:19:27.635Z,5.40
2023-04-03T07:20:27.664Z,5.20
2023-04-03T07:21:27.649Z,5.10
2023-04-03T07:22:27.654Z,5.50
2023-04-03T07:23:27.601Z,5.20
2023-04-03T07:24:27.589Z,4.50
2023-04-03T07:25:27.628Z,4.30
2023-04-03T07:26:27.552Z,4.10
2023-04-03T07:27:27.558Z,4.00
2023-04-03T07:28:27.549Z,2.50
2023-04-03T07:29:27.554Z,4.50
2023-04-03T07:30:27.664Z,2.60
2023-04-03T07:31:27.585Z,2.80
2023-04-03T07:32:27.590Z,4.90
2023-04-03T07:33:27.508Z,3.30
2023-04-03T07:34:27.480Z,3.80
2023-04-03T07:35:27.483Z,3.20
2023-04-03T07:36:27.481Z,4.60
2023-04-03T07:37:27.413Z,4.00
2023-04-03T07:38:27.452Z,4.00
2023-04-03T07:39:27.392Z,3.90
2023-04-03T07:40:27.372Z,4.50
2023-04-03T07:41:27.462Z,4.40
2023-04-03T07:42:27.393Z,3.10
2023-04-03T07:43:27.362Z,4.10
2023-04-03T07:44:27.386Z,3.80
2023-04-03T07:45:27.343Z,3.80
2023-04-03T07:46:27.418Z,2.20
2023-04-03T07:47:27.321Z,5.50
2023-04-03T07:48:27.313Z,5.10
2023-04-03T07:49:27.301Z,5.90
2023-04-03T07:50:27.289Z,3.20
2023-04-03T07:51:27.273Z,5.20
2023-04-03T07:52:27.244Z,3.30
2023-04-03T07:53:27.256Z,4.60
2023-04-03T07:54:27.243Z,2.30
2023-04-03T07:55:27.223Z,3.00
2023-04-03T07:56:27.242Z,3.70
2023-04-03T07:57:27.222Z,2.90
2023-04-03T07:58:27.209Z,3.20
2023-04-03T07:59:27.185Z,3.30
2023-04-03T08:00:27.175Z,3.20
2023-04-03T08:01:27.186Z,2.50
2023-04-03T08:02:27.182Z,3.30
2023-04-03T08:03:27.257Z,4.90
2023-04-03T08:04:27.256Z,4.10
2023-04-03T08:05:27.128Z,5.50
2023-04-03T08:06:42.035Z,7.00
2023-04-03T08:07:28.125Z,8.70
2023-04-03T08:08:27.130Z,8.00
2023-04-03T08:09:27.141Z,7.30
2023-04-03T08:10:27.089Z,7.20
2023-04-03T08:11:27.070Z,6.50
2023-04-03T08:12:27.098Z,4.90
2023-04-03T08:13:27.047Z,5.60
2023-04-03T08:14:27.060Z,5.50
2023-04-03T08:15:27.095Z,4.30
2023-04-03T08:16:27.033Z,2.00
2023-04-03T08:17:27.029Z,4.80
2023-04-03T08:18:26.995Z,4.70
2023-04-03T08:19:27.100Z,6.00
2023-04-03T08:20:26.950Z,7.40
2023-04-03T08:21:27.018Z,6.20
2023-04-03T08:22:26.915Z,4.40
2023-04-03T08:23:26.944Z,4.70
2023-04-03T08:24:26.922Z,3.60
2023-04-03T08:25:26.891Z,6.20
2023-04-03T08:26:26.977Z,5.00
2023-04-03T08:27:27.183Z,2.80
2023-04-03T08:28:26.872Z,2.80
2023-04-03T08:29:26.873Z,4.40
2023-04-03T08:30:26.857Z,3.30
2023-04-03T08:31:26.917Z,5.40
2023-04-03T08:32:26.915Z,4.40
2023-04-03T08:33:26.867Z,4.70
2023-04-03T08:34:26.822Z,2.90
2023-04-03T08:35:26.799Z,3.10
2023-04-03T08:36:26.848Z,4.10
2023-04-03T08:37:26.795Z,2.10
2023-04-03T08:38:26.833Z,2.30
2023-04-03T08:39:26.769Z,4.10
2023-04-03T08:40:26.737Z,5.20
2023-04-03T08:41:26.736Z,1.90
2023-04-03T08:42:26.912Z,3.40
2023-04-03T08:43:26.748Z,3.60
2023-04-03T08:44:26.748Z,5.40
2023-04-03T08:45:26.704Z,5.60
2023-04-03T08:46:26.707Z,3.50
2023-04-03T08:47:26.719Z,4.40
2023-04-03T08:48:26.679Z,7.10
2023-04-03T08:49:26.711Z,5.90
2023-04-03T08:50:26.688Z,4.90
2023-04-03T08:51:34.586Z,4.80
2023-04-03T08:52:26.950Z,6.00
2023-04-03T08:53:27.092Z,5.20
2023-04-03T08:54:27.133Z,3.90
2023-04-03T08:55:27.174Z,3.40
2023-04-03T08:56:26.636Z,3.20
2023-04-03T08:57:27.097Z,2.80
2023-04-03T08:58:26.640Z,3.60
2023-04-03T08:59:26.623Z,3.90
2023-04-03T09:00:26.564Z,3.00
2023-04-03T09:01:26.602Z,4.60
2023-04-03T09:02:26.531Z,3.70
2023-04-03T09:03:26.650Z,1.50
2023-04-03T09:04:26.508Z,1.90
2023-04-03T09:05:26.463Z,3.50
2023-04-03T09:06:26.477Z,2.30
2023-04-03T09:07:26.475Z,2.60
2023-04-03T09:08:26.444Z,2.30
2023-04-03T09:09:26.440Z,1.90
2023-04-03T09:10:26.457Z,2.30
2023-04-03T09:11:26.430Z,3.20
2023-04-03T09:12:26.438Z,3.60
2023-04-03T09:13:26.647Z,2.40
2023-04-03T09:14:26.388Z,1.80
2023-04-03T09:15:37.770Z,2.20
2023-04-03T09:16:27.428Z,3.40
2023-04-03T09:17:26.389Z,2.80
2023-04-03T09:18:26.339Z,3.10
2023-04-03T09:19:26.335Z,4.50
2023-04-03T09:20:26.333Z,3.30
2023-04-03T09:21:26.308Z,3.20
2023-04-03T09:22:26.291Z,2.40
2023-04-03T09:23:26.292Z,1.90
2023-04-03T09:24:26.292Z,2.60
2023-04-03T09:25:26.279Z,2.80
2023-04-03T09:26:26.234Z,4.10
2023-04-03T09:27:26.327Z,2.60
2023-04-03T09:28:26.713Z,1.70
2023-04-03T09:29:26.201Z,2.10
2023-04-03T09:30:26.223Z,3.20
2023-04-03T09:31:26.256Z,2.40
2023-04-03T09:32:26.189Z,2.80
2023-04-03T09:33:26.231Z,2.40
2023-04-03T09:34:26.215Z,2.00
2023-04-03T09:35:32.918Z,4.10
2023-04-03T09:36:27.149Z,2.20
2023-04-03T09:37:26.116Z,3.10
2023-04-03T09:38:26.127Z,2.10
2023-04-03T09:39:26.137Z,3.00
2023-04-03T09:40:26.146Z,3.20
2023-04-03T09:41:26.111Z,2.90
2023-04-03T09:42:26.068Z,2.70
2023-04-03T09:43:26.113Z,2.90
2023-04-03T09:44:26.061Z,2.10
2023-04-03T09:45:26.062Z,2.50
2023-04-03T09:46:26.119Z,1.60
2023-04-03T09:47:26.105Z,1.80
2023-04-03T09:48:26.050Z,2.40
2023-04-03T09:49:26.002Z,5.00
2023-04-03T09:50:26.032Z,5.40
2023-04-03T09:51:25.993Z,6.40
2023-04-03T09:52:26.004Z,4.40
2023-04-03T09:53:26.010Z,5.50
2023-04-03T09:54:25.954Z,8.10
2023-04-03T09:55:25.939Z,4.60
2023-04-03T09:56:25.955Z,7.30
2023-04-03T09:57:25.947Z,5.10
2023-04-03T09:58:26.156Z,3.00
2023-04-03T09:59:25.970Z,3.60
2023-04-03T10:00:25.896Z,2.90
2023-04-03T10:01:26.032Z,2.00
2023-04-03T10:02:25.924Z,3.70
2023-04-03T10:03:25.877Z,2.20
2023-04-03T10:04:25.896Z,2.40
2023-04-03T10:05:25.879Z,2.30
2023-04-03T10:06:25.865Z,2.60
2023-04-03T10:07:25.798Z,3.10
2023-04-03T10:08:25.844Z,3.10
2023-04-03T10:09:25.821Z,3.10
2023-04-03T10:10:25.786Z,1.90
2023-04-03T10:11:25.824Z,3.00
2023-04-03T10:12:25.757Z,3.80
2023-04-03T10:13:25.745Z,3.20
2023-04-03T10:14:25.805Z,2.30
2023-04-03T10:15:25.745Z,2.00
2023-04-03T10:16:25.778Z,2.90
2023-04-03T10:17:25.784Z,2.60
2023-04-03T10:18:25.709Z,2.50
2023-04-03T10:19:25.675Z,3.00
2023-04-03T10:20:25.688Z,2.90
2023-04-03T10:21:27.674Z,2.90
2023-04-03T10:22:25.672Z,2.20
2023-04-03T10:23:25.642Z,2.10
2023-04-03T10:24:25.673Z,2.10
2023-04-03T10:25:25.613Z,3.30
2023-04-03T10:26:25.630Z,3.10
2023-04-03T10:27:25.611Z,2.90
2023-04-03T10:28:25.570Z,3.70
2023-04-03T10:29:26.540Z,4.40
2023-04-03T10:30:25.688Z,2.20
2023-04-03T10:31:25.566Z,3.60
2023-04-03T10:32:25.705Z,3.30
2023-04-03T10:33:25.538Z,2.30
2023-04-03T10:34:25.576Z,2.40
2023-04-03T10:35:25.517Z,2.00
2023-04-03T10:36:25.512Z,1.50
2023-04-03T10:37:25.507Z,2.50
2023-04-03T10:38:25.479Z,2.00
2023-04-03T10:39:25.445Z,1.80
2023-04-03T10:40:25.451Z,2.70
2023-04-03T10:41:25.503Z,2.60
2023-04-03T10:42:25.453Z,2.60
2023-04-03T10:43:25.424Z,1.70
2023-04-03T10:44:25.452Z,3.00
2023-04-03T10:45:25.468Z,2.20
2023-04-03T10:46:25.463Z,2.30
2023-04-03T10:47:25.372Z,1.90
2023-04-03T10:48:25.416Z,3.00
2023-04-03T10:49:25.369Z,2.20
2023-04-03T10:50:25.329Z,2.10
2023-04-03T10:51:25.357Z,2.50
2023-04-03T10:52:25.339Z,2.50
2023-04-03T10:53:25.292Z,1.60
2023-04-03T10:54:25.385Z,2.20
2023-04-03T10:55:25.270Z,2.80
2023-04-03T10:56:25.316Z,2.00
2023-04-03T10:57:25.292Z,3.20
2023-04-03T10:58:25.243Z,2.60
2023-04-03T10:59:25.267Z,1.90
2023-04-03T11:00:25.229Z,1.60
2023-04-03T11:01:25.246Z,2.20
2023-04-03T11:02:25.294Z,3.50
2023-04-03T11:03:25.292Z,1.60
2023-04-03T11:04:25.228Z,2.20
2023-04-03T11:05:25.197Z,2.10
2023-04-03T11:06:25.156Z,4.00
2023-04-03T11:07:25.207Z,2.10
2023-04-03T11:08:25.169Z,2.30
2023-04-03T11:09:25.146Z,2.20
2023-04-03T11:10:25.166Z,3.80
2023-04-03T11:11:25.123Z,3.10
2023-04-03T11:12:25.103Z,2.70
2023-04-03T11:13:25.121Z,2.50
2023-04-03T11:14:25.113Z,3.00
2023-04-03T11:15:25.074Z,2.90
2023-04-03T11:16:25.102Z,2.90
2023-04-03T11:17:25.122Z,4.20
2023-04-03T11:18:25.013Z,1.90
2023-04-03T11:19:25.100Z,4.50
2023-04-03T11:20:25.077Z,3.20
2023-04-03T11:21:24.993Z,2.40
2023-04-03T11:22:24.973Z,2.30
2023-04-03T11:23:25.621Z,2.50
2023-04-03T11:24:24.986Z,2.80
2023-04-03T11:25:24.979Z,1.50
2023-04-03T11:26:24.982Z,2.60
2023-04-03T11:27:24.924Z,2.60
2023-04-03T11:28:24.904Z,1.20
2023-04-03T11:29:34.976Z,2.30
2023-04-03T11:30:25.924Z,2.30
2023-04-03T11:31:24.897Z,2.40
2023-04-03T11:32:24.954Z,2.40
2023-04-03T11:33:24.856Z,3.50
2023-04-03T11:34:24.866Z,1.90
2023-04-03T11:35:24.833Z,1.50
2023-04-03T11:36:26.091Z,2.90
2023-04-03T11:37:24.813Z,2.60
2023-04-03T11:38:24.805Z,1.70
2023-04-03T11:39:24.833Z,2.90
2023-04-03T11:40:24.815Z,2.10
2023-04-03T11:41:24.775Z,2.90
2023-04-03T11:42:24.809Z,2.10
2023-04-03T11:43:24.748Z,2.00
2023-04-03T11:44:24.753Z,2.50
2023-04-03T11:45:24.725Z,2.40
2023-04-03T11:46:24.804Z,3.30
2023-04-03T11:47:24.737Z,1.70
2023-04-03T11:48:25.313Z,3.00
2023-04-03T11:49:24.767Z,2.10
2023-04-03T11:50:24.692Z,2.60
2023-04-03T11:51:24.689Z,3.80
2023-04-03T11:52:24.651Z,1.90
2023-04-03T11:53:24.637Z,1.80
2023-04-03T11:54:30.041Z,1.40
2023-04-03T11:55:25.679Z,2.80
2023-04-03T11:56:24.631Z,2.60
2023-04-03T11:57:24.688Z,3.10
2023-04-03T11:58:24.579Z,4.90
2023-04-03T11:59:24.593Z,2.80
2023-04-03T12:00:24.596Z,2.10
2023-04-03T12:01:24.821Z,1.60
2023-04-03T12:02:24.647Z,2.30
2023-04-03T12:03:24.682Z,1.80
2023-04-03T12:04:24.557Z,2.60
2023-04-03T12:05:24.516Z,2.70
2023-04-03T12:06:24.517Z,3.30
2023-04-03T12:07:24.522Z,1.90
2023-04-03T12:08:24.500Z,2.10
2023-04-03T12:09:24.542Z,2.20
2023-04-03T12:10:32.373Z,3.70
2023-04-03T12:11:25.442Z,1.70
2023-04-03T12:12:24.433Z,2.70
2023-04-03T12:13:24.460Z,1.80
2023-04-03T12:14:24.455Z,3.90
2023-04-03T12:15:24.412Z,1.80
2023-04-03T12:16:24.481Z,1.80
2023-04-03T12:17:24.368Z,3.50
2023-04-03T12:18:24.366Z,2.30
2023-04-03T12:19:29.295Z,2.10
2023-04-03T12:20:25.343Z,2.10
2023-04-03T12:21:24.355Z,3.20
2023-04-03T12:22:24.336Z,2.00
2023-04-03T12:23:24.323Z,2.30
2023-04-03T12:24:24.419Z,2.00
2023-04-03T12:25:24.279Z,3.30
2023-04-03T12:26:25.293Z,1.80
2023-04-03T12:27:24.316Z,2.50
2023-04-03T12:28:24.292Z,4.00
2023-04-03T12:29:24.266Z,3.00
2023-04-03T12:30:24.251Z,2.10
2023-04-03T12:31:24.262Z,3.00
2023-04-03T12:32:24.255Z,2.70
2023-04-03T12:33:24.277Z,3.40
2023-04-03T12:34:24.205Z,2.60
2023-04-03T12:35:24.222Z,3.80
2023-04-03T12:36:24.212Z,5.50
2023-04-03T12:37:24.182Z,4.20
2023-04-03T12:38:24.194Z,5.70
2023-04-03T12:39:24.166Z,5.10
2023-04-03T12:40:24.122Z,3.80
2023-04-03T12:41:24.147Z,3.50
2023-04-03T12:42:24.142Z,2.20
2023-04-03T12:43:24.090Z,3.20
2023-04-03T12:44:24.075Z,4.50
2023-04-03T12:45:24.152Z,2.20
2023-04-03T12:46:24.110Z,3.90
2023-04-03T12:47:24.075Z,2.90
2023-04-03T12:48:24.074Z,1.90
2023-04-03T12:49:24.019Z,1.80
2023-04-03T12:50:24.066Z,3.20
2023-04-03T12:51:24.011Z,2.40
2023-04-03T12:52:24.003Z,2.40
2023-04-03T12:53:23.991Z,3.30
2023-04-03T12:54:23.967Z,2.50
2023-04-03T12:55:23.973Z,3.20
2023-04-03T12:56:23.947Z,2.50
2023-04-03T12:57:23.985Z,2.60
2023-04-03T12:58:23.985Z,2.70
2023-04-03T12:59:23.948Z,4.50
2023-04-03T13:00:23.934Z,4.80
2023-04-03T13:01:23.926Z,3.80
2023-04-03T13:02:23.919Z,3.00
2023-04-03T13:03:23.992Z,2.00
2023-04-03T13:04:23.877Z,3.30
2023-04-03T13:05:23.886Z,3.00
2023-04-03T13:06:23.869Z,2.00
2023-04-03T13:07:23.858Z,2.80
2023-04-03T13:08:23.820Z,3.40
2023-04-03T13:09:23.847Z,3.20
2023-04-03T13:10:23.811Z,2.70
2023-04-03T13:11:23.825Z,2.70
2023-04-03T13:12:23.872Z,3.40
2023-04-03T13:13:23.767Z,2.40
2023-04-03T13:14:23.768Z,3.70
2023-04-03T13:15:23.801Z,4.20
2023-04-03T13:16:23.878Z,1.50
2023-04-03T13:17:23.741Z,3.70